Latest Coastal Weather Observations for Yeppoon

IDQ60701

Issued at 3:31 am EST Saturday 20 December 2014 (issued every 10 minutes, with the page automatically refreshed every 10 minutes)

About coastal observations | Map of coastal stations | Coastal observations for QLD | Marine services | Other Formats
Station Details ID: 033294 Name: YEPPOON THE ESPLANADE Lat: -23.14 Lon: 150.75 Height: 5.5 m
Data from the previous 72 hours. | See also: Recent months at Yeppoon
Date/Time
EST
Temp

°C
Wind Pressure Rain
since 9am
mm
Weather Cloud Vis
km
Sea
Height
m
Swell
Dir
 
Speed
knots
Gust
knots
hPa Trend Height
m
Period
s
Dir
20/03:30am 20.8 W 6 7 1010.9 - 0.4 - - - - - - -
20/03:00am 21.0 WSW 5 6 1011.0 - 0.4 - - - - - - -
20/02:30am 21.3 W 4 6 1011.1 - 0.4 - - - - - - -
20/02:00am 21.8 WSW 3 4 1011.2 - 0.4 - - - - - - -
20/01:30am 22.1 W 4 5 1011.4 - 0.4 - - - - - - -
20/01:00am 22.0 W 4 5 1011.6 - 0.4 - - - - - - -
20/12:30am 22.5 W 3 4 1011.9 - 0.4 - - - - - - -
20/12:00am 22.7 W 5 6 1012.3 - 0.4 - - - - - - -
 
Date/Time
EST
Temp

°C
Wind Pressure Rain
since 9am
mm
Weather Cloud Vis
km
Sea
Height
m
Swell
Dir
 
Speed
knots
Gust
knots
hPa Trend Height
m
Period
s
Dir
19/11:30pm 22.9 W 4 4 1012.6 - 0.4 - - - - - - -
19/11:00pm 23.1 W 1 4 1013.0 - 0.4 - - - - - - -
19/10:30pm 23.6 W 2 3 1013.2 - 0.4 - - - - - - -
19/10:00pm 24.1 CALM 0 0 1013.3 - 0.4 - - - - - - -
19/09:30pm 25.0 N 3 5 1013.1 - 0.4 - - - - - - -
19/09:00pm 25.4 NE 3 5 1012.8 - 0.4 - - - - - - -
19/08:30pm 25.4 NE 3 5 1012.5 - 0.4 - - - - - - -
19/08:00pm 25.5 NE 5 7 1012.4 - 0.4 - - - - - - -
19/07:30pm 25.6 NE 7 10 1012.2 - 0.4 - - - - - - -
19/07:00pm 25.7 NE 7 10 1012.1 - 0.4 - - - - - - -
19/06:30pm 25.8 E 4 6 1011.7 - 0.4 - - - - - - -
19/06:00pm 25.8 E 6 9 1011.5 - 0.4 - - - - - - -
19/05:30pm 26.2 E 7 9 1011.1 - 0.4 - - - - - - -
19/05:00pm 26.3 E 7 9 1010.9 - 0.4 - - - - - - -
19/04:30pm 26.2 ESE 5 7 1011.0 - 0.4 - - - - - - -
19/04:00pm 25.9 E 6 9 1011.1 - 0.4 - - - - - - -
19/03:30pm 26.0 E 7 8 1010.9 - 0.4 - - - - - - -
19/03:00pm 25.4 SE 7 10 1010.9 - 0.4 - - - - - - -
19/02:30pm 25.3 ESE 7 10 1011.4 - 0.4 - - - - - - -
19/02:00pm 25.3 ESE 7 9 1011.6 - 0.4 - - - - - - -
19/01:30pm 25.2 SE 7 9 1012.0 - 0.4 - - - - - - -
19/01:00pm 25.7 SE 6 9 1012.2 - 0.0 - - - - - - -
19/12:30pm 25.9 SE 9 13 1012.2 - 0.0 - - - - - - -
19/12:00pm 25.7 SE 9 14 1012.4 - 0.0 - - - - - - -
19/11:30am 25.5 ESE 8 12 1012.6 - 0.0 - - - - - - -
19/11:00am 25.9 SE 9 13 1012.4 - 0.0 - - - - - - -
19/10:30am 27.0 S 5 9 1012.6 - 0.0 - - - - - - -
19/10:00am 27.0 ESE 4 5 1012.3 - 0.0 - - - - - - -
19/09:30am 27.0 SE 3 5 1012.5 - 0.0 - - - - - - -
19/09:00am 27.1 ESE 3 5 1012.3 - 0.0 - - - - - - -
19/08:30am 26.9 S 3 5 1012.4 - 0.0 - - - - - - -
19/08:00am 26.5 S 1 3 1012.2 - 0.0 - - - - - - -
19/07:30am 26.2 CALM 0 0 1011.9 - 0.0 - - - - - - -
19/07:00am 25.8 NNE 2 3 1011.6 - 0.0 - - - - - - -
19/06:30am 25.5 N 3 5 1011.4 - 0.0 - - - - - - -
19/06:00am 25.2 N 4 6 1011.0 - 0.0 - - - - - - -
19/05:30am 25.0 N 6 7 1010.7 - 0.0 - - - - - - -
19/05:00am 25.0 NNW 5 8 1010.6 - 0.0 - - - - - - -
19/04:30am 25.2 NNW 2 4 1010.4 - 0.0 - - - - - - -
19/04:00am 25.1 NNW 4 7 1010.3 - 0.0 - - - - - - -
19/03:30am 25.2 N 6 7 1010.2 - 0.0 - - - - - - -
19/03:00am 25.2 CALM 0 0 1010.4 - 0.0 - - - - - - -
19/02:30am 25.2 NNW 1 4 1010.6 - 0.0 - - - - - - -
19/02:00am 25.2 WNW 1 4 1010.9 - 0.0 - - - - - - -
19/01:30am 25.3 WSW 1 3 1011.1 - 0.0 - - - - - - -
19/01:00am 25.4 W 1 4 1011.9 - 0.0 - - - - - - -
19/12:30am 25.8 N 6 9 1012.1 - 0.0 - - - - - - -
19/12:00am 25.3 WSW 2 5 1012.8 - 0.0 - - - - - - -
 
Date/Time
EST
Temp

°C
Wind Pressure Rain
since 9am
mm
Weather Cloud Vis
km
Sea
Height
m
Swell
Dir
 
Speed
knots
Gust
knots
hPa Trend Height
m
Period
s
Dir
18/11:30pm 25.4 SW 4 6 1013.1 - 0.0 - - - - - - -
18/11:00pm 25.4 SSW 5 7 1012.9 - 0.0 - - - - - - -
18/10:30pm 25.6 W 5 9 1012.7 - 0.0 - - - - - - -
18/10:00pm 25.7 N 11 14 1011.3 - 0.0 - - - - - - -
18/09:30pm 26.1 N 12 14 1011.2 - 0.0 - - - - - - -
18/09:00pm 26.3 N 12 14 1010.7 - 0.0 - - - - - - -
18/08:30pm 26.8 N 11 13 1010.5 - 0.0 - - - - - - -
18/08:00pm 27.2 N 9 11 1010.4 - 0.0 - - - - - - -
18/07:30pm 27.5 N 9 14 1010.4 - 0.0 - - - - - - -
18/07:00pm 27.4 N 9 11 1010.2 - 0.0 - - - - - - -
18/06:30pm 27.6 N 13 18 1009.6 - 0.0 - - - - - - -
18/06:00pm 27.7 N 18 21 1009.1 - 0.0 - - - - - - -
18/05:30pm 27.8 N 19 22 1008.6 - 0.0 - - - - - - -
18/05:00pm 28.0 N 20 23 1008.1 - 0.0 - - - - - - -
18/04:30pm 28.0 N 20 24 1007.8 - 0.0 - - - - - - -
18/04:00pm 28.6 N 21 26 1007.6 - 0.0 - - - - - - -
18/03:30pm 28.5 NNE 22 25 1007.6 - 0.0 - - - - - - -
18/03:00pm 28.3 NNE 23 26 1008.1 - 0.0 - - - - - - -
18/02:30pm 28.5 NNE 23 27 1008.7 - 0.0 - - - - - - -
18/02:00pm 28.5 NNE 23 26 1009.4 - 0.0 - - - - - - -
18/01:30pm 28.6 NNE 22 27 1009.6 - 0.0 - - - - - - -
18/01:00pm 29.0 NNE 23 27 1010.0 - 0.0 - - - - - - -
18/12:30pm 28.6 NNE 22 25 1010.3 - 0.0 - - - - - - -
18/12:00pm 28.5 NNE 22 26 1010.4 - 0.0 - - - - - - -
18/11:30am 28.6 NNE 21 25 1010.6 - 0.0 - - - - - - -
18/11:00am 29.0 NNE 19 23 1010.7 - 0.0 - - - - - - -
18/10:30am 29.5 NE 14 17 1011.2 - 0.0 - - - - - - -
18/10:00am 29.8 NE 11 15 1011.6 - 0.0 - - - - - - -
18/09:30am 30.2 NE 8 11 1011.4 - 0.0 - - - - - - -
18/09:00am 29.7 NNW 6 9 1011.3 - 0.0 - - - - - - -
18/08:30am 29.1 NW 6 11 1011.4 - 0.0 - - - - - - -
18/08:00am 28.4 NW 8 12 1011.4 - 0.0 - - - - - - -
18/07:30am 27.7 NNW 9 15 1011.2 - 0.0 - - - - - - -
18/07:00am 26.8 NNW 6 10 1011.5 - 0.0 - - - - - - -
18/06:30am 26.0 N 8 10 1011.5 - 0.0 - - - - - - -
18/06:00am 24.9 N 8 10 1011.1 - 0.0 - - - - - - -
18/05:30am 22.6 WNW 4 5 1010.9 - 0.0 - - - - - - -
18/05:00am 22.7 W 4 5 1010.6 - 0.0 - - - - - - -
18/04:30am 23.3 WNW 2 5 1010.2 - 0.0 - - - - - - -
18/04:00am 23.5 W 3 4 1010.0 - 0.0 - - - - - - -
18/03:30am 23.9 SSE 2 4 1009.8 - 0.0 - - - - - - -
18/03:00am 24.5 N 5 8 1009.4 - 0.0 - - - - - - -
18/02:30am 24.5 N 7 8 1009.2 - 0.0 - - - - - - -
18/02:00am 24.3 N 6 8 1008.9 - 0.0 - - - - - - -
18/01:30am 24.1 N 5 6 1008.7 - 0.0 - - - - - - -
18/01:00am 24.6 N 7 8 1009.1 - 0.0 - - - - - - -
18/12:30am 24.4 N 8 10 1009.2 - 0.0 - - - - - - -
18/12:00am 25.1 NNE 8 10 1009.3 - 0.0 - - - - - - -
 
Date/Time
EST
Temp

°C
Wind Pressure Rain
since 9am
mm
Weather Cloud Vis
km
Sea
Height
m
Swell
Dir
 
Speed
knots
Gust
knots
hPa Trend Height
m
Period
s
Dir
17/11:30pm 24.9 NNW 4 7 1009.5 - 0.0 - - - - - - -
17/11:00pm 25.1 N 8 11 1009.6 - 0.0 - - - - - - -
17/10:30pm 25.9 NNE 6 7 1009.5 - 0.0 - - - - - - -
17/10:00pm 26.0 N 5 7 1009.3 - 0.0 - - - - - - -
17/09:30pm 26.2 N 3 5 1008.7 - 0.0 - - - - - - -
17/09:00pm 26.8 N 6 9 1008.2 - 0.0 - - - - - - -
17/08:30pm 27.5 CALM 0 3 1008.0 - 0.0 - - - - - - -
17/08:00pm 28.5 N 4 6 1007.8 - 0.0 - - - - - - -
17/07:30pm 28.8 WSW 2 4 1007.6 - 0.0 - - - - - - -
17/07:00pm 29.9 CALM 0 3 1007.2 - 0.0 - - - - - - -
17/06:30pm 31.0 NW 4 11 1006.8 - 0.0 - - - - - - -
17/06:00pm 32.0 N 11 15 1006.3 - 0.0 - - - - - - -
17/05:30pm 33.1 N 11 14 1005.6 - 0.0 - - - - - - -
17/05:00pm 33.5 N 14 17 1005.1 - 0.0 - - - - - - -
17/04:30pm 30.7 NNE 15 17 1005.0 - 0.0 - - - - - - -
17/04:00pm 30.3 NNE 14 17 1005.2 - 0.0 - - - - - - -
17/03:30pm 30.9 NNE 13 15 1005.4 - 0.0 - - - - - - -
17/03:00pm 30.5 NNE 11 14 1005.8 - 0.0 - - - - - - -
17/02:30pm 30.5 NE 11 14 1006.2 - 0.0 - - - - - - -
17/02:00pm 30.4 NNE 11 13 1006.6 - 0.0 - - - - - - -
17/01:30pm 30.9 ENE 10 12 1006.8 - 0.0 - - - - - - -
17/01:00pm 31.1 NE 9 12 1007.1 - 0.0 - - - - - - -
17/12:30pm 30.8 NE 10 13 1007.5 - 0.0 - - - - - - -
17/12:00pm 30.6 NE 10 12 1007.9 - 0.0 - - - - - - -
17/11:30am 30.1 NE 8 10 1008.2 - 0.0 - - - - - - -
17/11:00am 29.8 ENE 7 9 1008.4 - 0.0 - - - - - - -
17/10:30am 29.0 ENE 7 9 1008.7 - 0.0 - - - - - - -
17/10:00am 29.2 ENE 8 10 1008.9 - 0.0 - - - - - - -
17/09:30am 31.5 W 5 9 1009.0 - 0.0 - - - - - - -
17/09:00am 30.1 W 8 11 1009.1 - 0.0 - - - - - - -
17/08:30am 28.9 WNW 8 13 1008.9 - 0.0 - - - - - - -
17/08:00am 28.2 WNW 6 9 1008.9 - 0.0 - - - - - - -
17/07:30am 27.0 SSW 3 5 1009.3 - 0.0 - - - - - - -
17/07:00am 25.4 SW 4 6 1009.1 - 0.0 - - - - - - -
17/06:30am 23.9 SSW 4 5 1008.3 - 0.0 - - - - - - -
17/06:00am 22.5 W 4 5 1007.9 - 0.0 - - - - - - -
17/05:30am 22.0 SW 3 5 1007.8 - 0.0 - - - - - - -
17/05:00am 22.0 W 4 5 1007.5 - 0.0 - - - - - - -
17/04:30am 22.5 WSW 3 5 1007.5 - 0.0 - - - - - - -
17/04:00am 22.8 NW 3 5 1007.0 - 0.0 - - - - - - -

Other Formats:

Comma delimited format used in spreadsheet applications
http://www.bom.gov.au/fwo/IDQ60701/IDQ60701.94373.axf

JavaScript Object Notation format (JSON) in row-major order
http://www.bom.gov.au/fwo/IDQ60701/IDQ60701.94373.json